Time;durP1;ratioP1;P1;durP2;ratioP2;P2;SDS_P1;SDS_P2;PMS_P1;PMS_P2;Temp;Humidity;BMP_temperature;BMP_pressure;BME280_temperature;BME280_humidity;BME280_pressure;Samples;Min_cycle;Max_cycle;Signal;HPM_P1;HPM_P2
2023/09/15 00:01:11;;;;;;;3.35;2.72;;;;;;;13.73;100.00;97613.00;4993640;28;20908;-75
2023/09/15 00:03:37;;;;;;;2.92;2.40;;;;;;;13.70;100.00;97616.97;4993554;28;20951;-75
2023/09/15 00:06:04;;;;;;;3.30;2.58;;;;;;;13.69;100.00;97612.72;4993432;28;20426;-75
2023/09/15 00:08:31;;;;;;;4.95;2.67;;;;;;;13.68;100.00;97615.66;4993543;28;20437;-75
2023/09/15 00:10:57;;;;;;;3.30;2.63;;;;;;;13.63;100.00;97611.13;4993482;28;20410;-75
2023/09/15 00:13:24;;;;;;;5.30;2.75;;;;;;;13.61;100.00;97623.88;4993409;28;20406;-75
2023/09/15 00:15:51;;;;;;;4.53;2.80;;;;;;;13.59;100.00;97620.69;4993126;28;20441;-75
2023/09/15 00:18:20;;;;;;;4.82;2.50;;;;;;;13.56;100.00;97613.22;4993513;28;20402;-75
2023/09/15 00:20:46;;;;;;;3.40;2.67;;;;;;;13.54;100.00;97616.16;4993213;28;20403;-76
2023/09/15 00:23:13;;;;;;;3.58;2.65;;;;;;;13.52;100.00;97615.63;4993155;28;20403;-75
2023/09/15 00:25:40;;;;;;;5.50;3.00;;;;;;;13.51;100.00;97618.56;4992963;28;20413;-75
2023/09/15 00:28:09;;;;;;;5.20;2.80;;;;;;;13.48;100.00;97611.09;4993453;28;20781;-76
2023/09/15 00:30:37;;;;;;;3.75;2.67;;;;;;;13.44;100.00;97605.53;4993288;28;20768;-75
2023/09/15 00:33:04;;;;;;;3.10;2.45;;;;;;;13.42;100.00;97604.97;4993094;28;20411;-75
2023/09/15 00:35:31;;;;;;;2.78;2.47;;;;;;;13.40;100.00;97606.28;4975465;28;20432;-76
2023/09/15 00:37:57;;;;;;;3.75;2.60;;;;;;;13.39;100.00;97604.69;4993102;28;20815;-75
2023/09/15 00:40:24;;;;;;;4.57;2.80;;;;;;;13.36;100.00;97599.91;4993017;28;20406;-75
2023/09/15 00:42:53;;;;;;;3.80;2.60;;;;;;;13.35;100.00;97604.44;4993049;28;20406;-75
2023/09/15 00:45:21;;;;;;;5.22;2.90;;;;;;;13.34;100.00;97594.06;4992608;28;20441;-75
2023/09/15 00:47:50;;;;;;;5.32;2.78;;;;;;;13.32;100.00;97594.31;4992422;28;20414;-75
2023/09/15 00:50:18;;;;;;;3.10;2.42;;;;;;;13.33;100.00;97595.09;4992991;28;20399;-75
2023/09/15 00:52:50;;;;;;;3.47;2.70;;;;;;;13.31;100.00;97598.03;4992932;28;20800;-75
2023/09/15 00:55:21;;;;;;;3.42;2.58;;;;;;;13.32;100.00;97591.66;4992601;28;20407;-75
2023/09/15 00:57:50;;;;;;;5.22;2.88;;;;;;;13.31;100.00;97592.72;4992766;28;20756;-75
2023/09/15 01:00:19;;;;;;;4.45;2.60;;;;;;;13.29;100.00;97597.50;4992588;28;20895;-75
2023/09/15 01:02:46;;;;;;;3.75;2.65;;;;;;;13.28;100.00;97597.78;4992573;28;20827;-75
2023/09/15 01:05:19;;;;;;;3.75;2.90;;;;;;;13.27;100.00;97594.31;4992594;28;20410;-75
2023/09/15 01:07:46;;;;;;;3.63;2.83;;;;;;;13.25;100.00;97587.66;4992437;28;20423;-75
2023/09/15 01:10:14;;;;;;;4.83;3.30;;;;;;;13.23;100.00;97585.25;4992380;28;20414;-75
2023/09/15 01:12:41;;;;;;;3.80;3.00;;;;;;;13.21;100.00;97587.38;4992470;28;20480;-75
2023/09/15 01:15:08;;;;;;;2.92;2.60;;;;;;;13.20;100.00;97590.31;4992170;28;20411;-75
2023/09/15 01:17:42;;;;;;;3.85;2.63;;;;;;;13.18;100.00;97588.69;4992196;28;20407;-75
2023/09/15 01:20:15;;;;;;;4.68;2.63;;;;;;;13.15;100.00;97588.44;4992305;28;20461;-75
2023/09/15 01:23:10;;;;;;;4.13;3.07;;;;;;;13.11;100.00;97577.50;4992306;28;20880;-75
2023/09/15 01:26:09;;;;;;;3.50;2.70;;;;;;;13.10;100.00;97570.56;4991863;28;20776;-75
2023/09/15 01:29:03;;;;;;;4.95;3.00;;;;;;;13.09;100.00;97576.94;4991828;28;20777;-75
2023/09/15 01:31:32;;;;;;;3.28;2.88;;;;;;;13.07;100.00;97572.97;4966666;28;20406;-75
2023/09/15 01:33:59;;;;;;;5.50;3.40;;;;;;;13.02;100.00;97571.09;4991826;28;20398;-75
2023/09/15 01:36:25;;;;;;;3.83;2.58;;;;;;;13.01;100.00;97571.34;4991993;28;20876;-75
2023/09/15 01:38:51;;;;;;;3.28;2.97;;;;;;;12.99;100.00;97576.13;4991840;28;20465;-75
2023/09/15 01:41:19;;;;;;;4.10;2.80;;;;;;;12.98;100.00;97577.19;4991951;28;20441;-75
2023/09/15 01:43:45;;;;;;;3.92;3.00;;;;;;;12.95;100.00;97570.53;4991795;28;20903;-75
2023/09/15 01:46:11;;;;;;;3.47;2.87;;;;;;;12.98;100.00;97571.88;4991532;28;20504;-75
2023/09/15 01:48:40;;;;;;;3.25;2.90;;;;;;;12.97;100.00;97576.41;4991750;28;20417;-75
2023/09/15 01:51:07;;;;;;;4.57;2.90;;;;;;;12.95;100.00;97577.72;4991606;28;20889;-75
2023/09/15 01:53:35;;;;;;;3.65;2.90;;;;;;;12.92;100.00;97584.38;4973913;28;20413;-75
2023/09/15 01:56:01;;;;;;;4.30;3.22;;;;;;;12.89;100.00;97573.44;4991272;28;20461;-75
2023/09/15 01:58:28;;;;;;;3.63;2.70;;;;;;;12.90;100.00;97575.84;4991527;28;20461;-75
2023/09/15 02:00:55;;;;;;;3.72;2.70;;;;;;;12.89;100.00;97574.25;4990918;28;20410;-75
2023/09/15 02:03:21;;;;;;;5.53;3.03;;;;;;;12.89;100.00;97562.81;4991345;28;20403;-75
2023/09/15 02:05:49;;;;;;;5.22;3.33;;;;;;;12.85;100.00;97567.06;4991017;28;20406;-75
2023/09/15 02:08:15;;;;;;;5.05;3.42;;;;;;;12.80;100.00;97576.59;4991460;28;20406;-75
2023/09/15 02:10:41;;;;;;;4.32;3.00;;;;;;;12.80;100.00;97576.59;4991206;28;20407;-75
2023/09/15 02:13:08;;;;;;;3.90;3.00;;;;;;;12.80;100.00;97578.47;4991388;28;20410;-75
2023/09/15 02:15:34;;;;;;;5.20;3.22;;;;;;;12.78;100.00;97578.72;4991100;28;20407;-75
2023/09/15 02:18:00;;;;;;;4.00;3.03;;;;;;;12.76;100.00;97575.53;4991141;28;20758;-75
2023/09/15 02:20:28;;;;;;;4.20;3.08;;;;;;;12.74;100.00;97575.00;4991197;28;20453;-75
2023/09/15 02:22:57;;;;;;;3.47;2.85;;;;;;;12.73;100.00;97576.03;4990870;28;20406;-75
2023/09/15 02:25:23;;;;;;;3.75;2.95;;;;;;;12.72;100.00;97579.75;4990766;28;20425;-75
2023/09/15 02:27:49;;;;;;;5.20;3.08;;;;;;;12.69;100.00;97579.50;4990938;28;20422;-75
2023/09/15 02:30:15;;;;;;;3.85;2.80;;;;;;;12.68;100.00;97580.53;4973708;28;20429;-75
2023/09/15 02:32:41;;;;;;;5.65;3.42;;;;;;;12.64;100.00;97576.78;4973541;28;20414;-75
2023/09/15 02:35:08;;;;;;;3.28;2.97;;;;;;;12.62;100.00;97578.94;4990569;28;20407;-75
2023/09/15 02:37:34;;;;;;;4.15;3.13;;;;;;;12.62;100.00;97576.28;4991018;28;20403;-75
2023/09/15 02:40:03;;;;;;;4.93;3.30;;;;;;;12.60;100.00;97586.34;4990786;28;20453;-75
2023/09/15 02:42:29;;;;;;;3.20;2.90;;;;;;;12.60;100.00;97583.69;4990835;28;20437;-75
2023/09/15 02:44:55;;;;;;;5.43;3.40;;;;;;;12.58;100.00;97578.63;4990710;28;20525;-75
2023/09/15 02:47:22;;;;;;;4.07;2.88;;;;;;;12.55;100.00;97575.72;4990765;28;20422;-75
2023/09/15 02:49:48;;;;;;;3.60;3.08;;;;;;;12.53;100.00;97570.66;4990768;28;20477;-75
2023/09/15 02:52:14;;;;;;;3.00;2.50;;;;;;;12.51;100.00;97578.06;4990825;28;20414;-75
2023/09/15 02:54:40;;;;;;;4.32;2.80;;;;;;;12.50;100.00;97581.78;4990743;28;20500;-75
2023/09/15 02:57:08;;;;;;;5.20;3.40;;;;;;;12.46;100.00;97570.09;4973326;28;20477;-75
2023/09/15 02:59:34;;;;;;;4.90;3.38;;;;;;;12.44;100.00;97577.50;4991039;28;20877;-75
2023/09/15 03:02:00;;;;;;;3.75;3.17;;;;;;;12.42;100.00;97582.25;4990688;28;20407;-75
2023/09/15 03:04:26;;;;;;;4.50;3.05;;;;;;;12.39;100.00;97577.50;4990605;28;20411;-75
2023/09/15 03:06:53;;;;;;;7.00;3.80;;;;;;;12.39;100.00;97572.97;4990529;28;20979;-75
2023/09/15 03:09:19;;;;;;;4.50;3.22;;;;;;;12.36;100.00;97578.00;4990774;28;20403;-75
2023/09/15 03:11:46;;;;;;;4.50;2.90;;;;;;;12.34;100.00;97570.28;4992120;28;20472;-75
2023/09/15 03:14:13;;;;;;;5.13;3.15;;;;;;;12.32;100.00;97572.41;4994340;28;20892;-75
2023/09/15 03:16:41;;;;;;;3.80;2.58;;;;;;;12.31;100.00;97572.66;4994687;28;20501;-75
2023/09/15 03:19:08;;;;;;;3.35;2.70;;;;;;;12.30;100.00;97571.06;4977162;28;20413;-75
2023/09/15 03:21:34;;;;;;;3.20;2.58;;;;;;;12.31;100.00;97576.13;4994620;28;20413;-75
2023/09/15 03:24:01;;;;;;;4.72;2.70;;;;;;;12.31;100.00;97578.78;4993516;28;20414;-75
2023/09/15 03:26:27;;;;;;;4.55;3.03;;;;;;;12.31;100.00;97580.63;4994221;28;20935;-75
2023/09/15 03:28:53;;;;;;;3.38;2.85;;;;;;;12.31;100.00;97573.47;4994262;28;20422;-75
2023/09/15 03:31:21;;;;;;;4.95;2.55;;;;;;;12.29;100.00;97577.44;4994273;28;20923;-75
2023/09/15 03:33:47;;;;;;;4.20;2.80;;;;;;;12.27;100.00;97572.38;4994102;28;20497;-75
2023/09/15 03:36:13;;;;;;;3.60;2.97;;;;;;;12.27;100.00;97576.88;4993995;28;20403;-75
2023/09/15 03:38:40;;;;;;;4.23;2.73;;;;;;;12.27;100.00;97568.91;4994164;28;20414;-75
2023/09/15 03:41:07;;;;;;;5.07;3.35;;;;;;;12.23;100.00;97571.28;4994020;28;20445;-75
2023/09/15 03:43:33;;;;;;;6.22;3.30;;;;;;;12.18;100.00;97565.94;4994333;28;20409;-76
2023/09/15 03:45:59;;;;;;;4.28;3.10;;;;;;;12.16;100.00;97564.63;4993880;28;20411;-75
2023/09/15 03:48:27;;;;;;;4.45;3.00;;;;;;;12.13;100.00;97568.56;4992852;28;20418;-75
2023/09/15 03:50:55;;;;;;;4.95;3.42;;;;;;;12.12;100.00;97574.94;4993721;28;20920;-75
2023/09/15 03:53:21;;;;;;;4.43;2.97;;;;;;;12.11;100.00;97562.72;4994074;28;20495;-75
2023/09/15 03:55:48;;;;;;;4.35;3.05;;;;;;;12.10;100.00;97560.34;4993165;28;20415;-75
2023/09/15 03:58:14;;;;;;;5.03;3.13;;;;;;;12.07;100.00;97566.94;4994188;28;20417;-76
2023/09/15 04:00:41;;;;;;;6.72;3.85;;;;;;;12.03;100.00;97568.50;4994016;28;20409;-75
2023/09/15 04:03:07;;;;;;;4.50;3.20;;;;;;;12.01;100.00;97563.47;4993743;28;20422;-75
2023/09/15 04:05:35;;;;;;;6.32;3.30;;;;;;;12.01;100.00;97562.66;4993702;28;20407;-76
2023/09/15 04:08:01;;;;;;;3.80;2.83;;;;;;;11.98;100.00;97569.28;4993744;28;20765;-75
2023/09/15 04:10:27;;;;;;;4.85;2.72;;;;;;;11.97;100.00;97564.22;4976164;28;20418;-76
2023/09/15 04:12:53;;;;;;;4.55;3.22;;;;;;;11.95;100.00;97558.38;4993588;28;20407;-75
2023/09/15 04:15:20;;;;;;;4.85;3.72;;;;;;;11.92;100.00;97562.34;4993278;28;20415;-75
2023/09/15 04:17:46;;;;;;;5.82;3.63;;;;;;;11.91;100.00;97559.94;4993554;28;20406;-75
2023/09/15 04:20:13;;;;;;;5.80;3.28;;;;;;;11.89;100.00;97557.53;4993417;28;20402;-75
2023/09/15 04:22:42;;;;;;;4.75;3.20;;;;;;;11.87;100.00;97551.69;4974837;28;20488;-76
2023/09/15 04:25:11;;;;;;;3.45;2.90;;;;;;;11.89;100.00;97548.78;4985298;28;20457;-75
2023/09/15 04:27:37;;;;;;;5.13;3.22;;;;;;;11.86;100.00;97554.59;4993618;28;20418;-75
2023/09/15 04:30:06;;;;;;;5.15;3.28;;;;;;;11.85;100.00;97553.00;4993944;28;20784;-76
2023/09/15 04:32:34;;;;;;;5.00;3.80;;;;;;;11.83;100.00;97550.59;4993643;28;20414;-76
2023/09/15 04:35:00;;;;;;;4.95;3.42;;;;;;;11.82;100.00;97553.50;4993180;28;20410;-76
2023/09/15 04:37:26;;;;;;;5.70;3.38;;;;;;;11.82;100.00;97556.16;4993595;28;20407;-75
2023/09/15 04:39:54;;;;;;;5.63;3.28;;;;;;;11.80;100.00;97553.75;4992971;28;20419;-75
2023/09/15 04:42:20;;;;;;;5.22;3.53;;;;;;;11.79;100.00;97551.38;4992769;28;20450;-75
2023/09/15 04:44:46;;;;;;;3.63;2.95;;;;;;;11.79;100.00;97554.03;4992550;28;20406;-75
2023/09/15 04:47:13;;;;;;;5.10;3.90;;;;;;;11.79;100.00;97548.72;4992855;28;20453;-76
2023/09/15 04:49:39;;;;;;;7.75;3.42;;;;;;;11.79;100.00;97551.38;4993077;28;20460;-76
2023/09/15 04:52:06;;;;;;;4.07;3.40;;;;;;;11.76;100.00;97552.66;4991798;28;20409;-76
2023/09/15 04:54:32;;;;;;;4.55;3.25;;;;;;;11.74;100.00;97544.16;4992287;28;20501;-76
2023/09/15 04:57:00;;;;;;;4.85;3.70;;;;;;;11.73;100.00;97545.19;4992802;28;20891;-75
2023/09/15 04:59:26;;;;;;;4.75;3.63;;;;;;;11.73;100.00;97553.13;4992814;28;20803;-77
2023/09/15 05:01:52;;;;;;;5.50;3.50;;;;;;;11.73;100.00;97544.41;4975799;28;20502;-75
2023/09/15 05:04:20;;;;;;;4.20;3.30;;;;;;;11.72;100.00;97548.09;4992151;28;20465;-77
2023/09/15 05:06:46;;;;;;;4.35;3.20;;;;;;;11.73;100.00;97545.19;4992960;28;20513;-77
2023/09/15 05:09:18;;;;;;;6.03;4.03;;;;;;;11.73;100.00;97544.41;4992290;28;20756;-76
2023/09/15 05:11:44;;;;;;;5.65;3.95;;;;;;;11.74;100.00;97540.69;4991479;28;20437;-76
2023/09/15 05:14:11;;;;;;;5.05;3.63;;;;;;;11.74;100.00;97546.81;4990341;28;20891;-76
2023/09/15 05:16:38;;;;;;;6.23;3.57;;;;;;;11.73;100.00;97553.13;4991844;28;20483;-76
2023/09/15 05:19:04;;;;;;;3.92;3.22;;;;;;;11.74;100.00;97545.97;4992073;28;20476;-76
2023/09/15 05:21:30;;;;;;;8.48;4.25;;;;;;;11.76;100.00;97559.81;4991047;28;20449;-76
2023/09/15 05:23:56;;;;;;;4.65;3.30;;;;;;;11.77;100.00;97556.91;4997881;28;20419;-76
2023/09/15 05:26:22;;;;;;;5.10;3.60;;;;;;;11.78;100.00;97555.88;4995519;28;20516;-76
2023/09/15 05:28:49;;;;;;;5.03;3.45;;;;;;;11.79;100.00;97562.78;4992466;28;20421;-76
2023/09/15 05:31:17;;;;;;;5.57;3.70;;;;;;;11.79;100.00;97557.47;4993252;28;20422;-76
2023/09/15 05:33:43;;;;;;;4.80;3.45;;;;;;;11.80;100.00;97561.69;4983300;28;20414;-76
2023/09/15 05:36:10;;;;;;;5.30;3.35;;;;;;;11.81;100.00;97568.59;4971666;28;20501;-76
2023/09/15 05:38:36;;;;;;;4.68;3.65;;;;;;;11.82;100.00;97569.41;4990190;28;20409;-76
2023/09/15 05:41:03;;;;;;;4.55;3.40;;;;;;;11.84;100.00;97564.66;4989740;28;20410;-76
2023/09/15 05:43:29;;;;;;;5.22;3.40;;;;;;;11.86;100.00;97559.91;4991982;28;20399;-76
2023/09/15 05:45:56;;;;;;;5.60;3.28;;;;;;;11.89;100.00;97565.50;4989311;28;20430;-76
2023/09/15 05:48:23;;;;;;;3.45;2.90;;;;;;;11.94;100.00;97562.88;4989842;28;20422;-76
2023/09/15 05:50:50;;;;;;;4.88;3.50;;;;;;;12.00;100.00;97564.53;4990219;28;20541;-76
2023/09/15 05:53:16;;;;;;;3.95;3.08;;;;;;;12.07;100.00;97566.94;4972448;28;20410;-76
2023/09/15 05:55:42;;;;;;;4.43;3.00;;;;;;;12.13;100.00;97568.56;4989994;28;20852;-76
2023/09/15 05:58:08;;;;;;;5.18;3.13;;;;;;;12.21;100.00;97569.94;4990627;28;20394;-76
2023/09/15 06:00:35;;;;;;;2.97;2.58;;;;;;;12.26;100.00;97576.06;4989934;28;20888;-76
2023/09/15 06:03:02;;;;;;;4.07;3.03;;;;;;;12.34;100.00;97566.81;4989844;28;20498;-76
2023/09/15 06:05:29;;;;;;;2.90;2.40;;;;;;;12.39;100.00;97572.19;4988707;28;20414;-76
2023/09/15 06:07:55;;;;;;;4.07;2.83;;;;;;;12.47;100.00;97565.59;4988323;28;20780;-76
2023/09/15 06:10:22;;;;;;;3.47;2.97;;;;;;;12.52;100.00;97569.06;4982696;28;20849;-76
2023/09/15 06:12:49;;;;;;;3.50;2.92;;;;;;;12.58;100.00;97569.88;4990152;28;20410;-77
2023/09/15 06:15:15;;;;;;;5.07;3.10;;;;;;;12.62;100.00;97574.41;4989443;28;20449;-76
2023/09/15 06:17:41;;;;;;;4.65;3.25;;;;;;;12.67;100.00;97577.09;4990238;28;20699;-76
2023/09/15 06:20:08;;;;;;;4.55;3.38;;;;;;;12.72;100.00;97579.75;4988565;28;20418;-76
2023/09/15 06:22:36;;;;;;;7.50;3.67;;;;;;;12.77;100.00;97579.00;4990049;28;20449;-76
2023/09/15 06:25:03;;;;;;;5.47;3.33;;;;;;;12.82;100.00;97586.16;4987735;28;20469;-76
2023/09/15 06:27:33;;;;;;;7.22;3.47;;;;;;;12.87;100.00;97581.66;4985571;28;20414;-76
2023/09/15 06:29:59;;;;;;;5.30;3.55;;;;;;;12.92;100.00;97579.06;4989272;28;20990;-76
2023/09/15 06:32:25;;;;;;;6.63;3.63;;;;;;;12.98;100.00;97577.19;4988884;28;20799;-76
2023/09/15 06:34:52;;;;;;;8.65;4.07;;;;;;;13.03;100.00;97577.19;4989413;28;20429;-76
2023/09/15 06:37:18;;;;;;;7.15;3.95;;;;;;;13.08;100.00;97577.25;4984129;28;20449;-76
2023/09/15 06:39:45;;;;;;;6.50;3.95;;;;;;;13.14;100.00;97573.56;4989319;28;20426;-75
2023/09/15 06:42:14;;;;;;;6.93;4.40;;;;;;;13.21;100.00;97582.06;4989227;28;20776;-76
2023/09/15 06:44:40;;;;;;;6.43;4.13;;;;;;;13.28;100.00;97581.81;4991997;28;20410;-75
2023/09/15 06:47:06;;;;;;;8.18;4.70;;;;;;;13.35;100.00;97574.38;4994715;28;20426;-76
2023/09/15 06:49:33;;;;;;;6.25;4.30;;;;;;;13.42;100.00;97577.59;4973370;28;20429;-76
2023/09/15 06:51:59;;;;;;;8.45;4.30;;;;;;;13.49;100.00;97573.59;4990124;28;20413;-76
2023/09/15 06:54:25;;;;;;;7.60;4.78;;;;;;;13.57;100.00;97566.97;4981400;28;20425;-76
2023/09/15 06:56:53;;;;;;;7.07;4.70;;;;;;;13.66;100.00;97577.88;4988721;28;20438;-76
2023/09/15 06:59:19;;;;;;;6.35;4.40;;;;;;;13.75;100.00;97571.75;4989420;28;20411;-76
2023/09/15 07:01:45;;;;;;;6.72;4.43;;;;;;;13.88;100.00;97573.88;4988633;28;20422;-75
2023/09/15 07:04:13;;;;;;;6.10;4.07;;;;;;;14.01;100.00;97571.72;4988685;28;20410;-76
2023/09/15 07:06:39;;;;;;;4.80;3.83;;;;;;;14.13;100.00;97564.28;4989948;28;20418;-76
2023/09/15 07:09:05;;;;;;;5.88;3.72;;;;;;;14.25;100.00;97568.22;4989572;28;20753;-76
2023/09/15 07:11:31;;;;;;;5.93;4.07;;;;;;;14.36;100.00;97554.91;4988805;28;20414;-76
2023/09/15 07:13:59;;;;;;;5.32;3.95;;;;;;;14.47;100.00;97561.81;4989421;28;20707;-76
2023/09/15 07:16:27;;;;;;;6.30;4.07;;;;;;;14.56;100.00;97561.00;4988998;28;20414;-76
2023/09/15 07:18:53;;;;;;;4.95;3.58;;;;;;;14.65;100.00;97550.56;4989806;28;20424;-76
2023/09/15 07:21:19;;;;;;;6.53;4.20;;;;;;;14.73;100.00;97555.34;4988722;28;20425;-76
2023/09/15 07:23:45;;;;;;;6.35;3.90;;;;;;;14.81;100.00;97556.63;4989038;28;20418;-76
2023/09/15 07:26:11;;;;;;;4.95;3.60;;;;;;;14.89;100.00;97564.03;4989012;28;20446;-76
2023/09/15 07:28:38;;;;;;;4.75;3.40;;;;;;;14.97;100.00;97561.59;4989132;28;20425;-76
2023/09/15 07:31:06;;;;;;;7.95;3.88;;;;;;;15.04;100.00;97555.97;4989254;28;20421;-76
2023/09/15 07:33:32;;;;;;;5.07;3.72;;;;;;;15.12;100.00;97560.72;4971803;28;20414;-76
2023/09/15 07:35:59;;;;;;;5.70;3.90;;;;;;;15.20;100.00;97562.00;4988821;28;20415;-76
2023/09/15 07:38:26;;;;;;;4.82;3.85;;;;;;;15.27;100.00;97559.81;4972449;28;20411;-76
2023/09/15 07:40:52;;;;;;;5.80;3.97;;;;;;;15.34;100.00;97563.78;4989498;28;20434;-77
2023/09/15 07:43:19;;;;;;;4.80;3.47;;;;;;;15.44;100.00;97555.72;4989718;28;20478;-77
2023/09/15 07:45:45;;;;;;;5.43;4.05;;;;;;;15.53;100.00;97549.78;4988905;28;20402;-76
2023/09/15 07:48:12;;;;;;;6.35;4.20;;;;;;;15.63;100.00;97557.75;4989417;28;20930;-76
2023/09/15 07:50:39;;;;;;;5.00;3.92;;;;;;;15.72;100.00;97553.38;4989584;28;20425;-76
2023/09/15 07:53:05;;;;;;;5.40;4.18;;;;;;;15.81;100.00;97547.19;4989698;28;20429;-76
2023/09/15 07:55:31;;;;;;;9.73;4.60;;;;;;;15.97;100.00;97557.72;4989142;28;20433;-76
2023/09/15 07:57:57;;;;;;;5.18;3.60;;;;;;;16.13;100.00;97551.16;4989011;28;20414;-76
2023/09/15 08:00:24;;;;;;;5.93;4.00;;;;;;;16.28;100.00;97548.34;4992053;28;20418;-76
2023/09/15 08:02:50;;;;;;;5.30;3.67;;;;;;;16.44;100.00;97543.63;4992535;28;20732;-76
2023/09/15 08:05:18;;;;;;;5.00;3.60;;;;;;;16.60;100.00;97550.38;4992184;28;20476;-76
2023/09/15 08:07:45;;;;;;;6.20;4.05;;;;;;;16.74;100.00;97545.97;4992087;28;20430;-77
2023/09/15 08:10:12;;;;;;;5.40;3.65;;;;;;;16.88;100.00;97543.38;4992090;28;20449;-77
2023/09/15 08:12:39;;;;;;;4.65;3.50;;;;;;;17.02;100.00;97546.94;4992839;28;20423;-77
2023/09/15 08:15:06;;;;;;;5.70;3.60;;;;;;;17.14;100.00;97551.88;4991549;28;20438;-77
2023/09/15 08:17:33;;;;;;;5.10;3.55;;;;;;;17.24;100.00;97544.47;4992665;28;20402;-77
2023/09/15 08:19:59;;;;;;;6.10;4.00;;;;;;;17.39;100.00;97540.78;4992035;28;20417;-77
2023/09/15 08:22:27;;;;;;;5.20;3.63;;;;;;;17.57;100.00;97537.31;4991744;28;20399;-77
2023/09/15 08:24:54;;;;;;;6.22;4.00;;;;;;;17.78;100.00;97541.25;4991540;28;20493;-76
2023/09/15 08:27:21;;;;;;;5.45;3.65;;;;;;;18.01;100.00;97544.91;4991678;28;20422;-77
2023/09/15 08:29:47;;;;;;;5.57;3.23;;;;;;;18.24;100.00;97537.78;4991227;28;20446;-77
2023/09/15 08:32:14;;;;;;;6.10;4.50;;;;;;;18.42;100.00;97544.94;4991530;28;20490;-77
2023/09/15 08:34:41;;;;;;;5.78;4.20;;;;;;;18.55;100.00;97538.78;4990948;28;20423;-76
2023/09/15 08:37:07;;;;;;;5.43;3.77;;;;;;;18.65;100.00;97531.66;4990097;28;20473;-76
2023/09/15 08:39:34;;;;;;;7.45;4.40;;;;;;;18.70;100.00;97537.72;4991190;28;20509;-76
2023/09/15 08:42:02;;;;;;;4.47;3.43;;;;;;;18.73;100.00;97534.44;4991208;28;20406;-77
2023/09/15 08:44:31;;;;;;;6.07;3.90;;;;;;;18.78;100.00;97523.63;4987849;28;20411;-76
2023/09/15 08:46:58;;;;;;;4.50;3.35;;;;;;;18.84;100.00;97533.13;4984734;28;20440;-76
2023/09/15 08:49:24;;;;;;;5.07;3.75;;;;;;;18.88;100.00;97534.09;4990186;28;20493;-76
2023/09/15 08:51:54;;;;;;;4.88;3.88;;;;;;;18.84;100.00;97525.09;4990531;28;20410;-76
2023/09/15 08:54:20;;;;;;;4.78;4.05;;;;;;;18.85;100.00;97526.69;4991127;28;20464;-77
2023/09/15 08:56:48;;;;;;;6.55;3.97;;;;;;;18.88;100.00;97525.25;4988589;28;20409;-76
2023/09/15 08:59:16;;;;;;;4.63;3.10;;;;;;;18.91;100.00;97524.69;4991424;28;20410;-77
2023/09/15 09:01:42;;;;;;;4.85;3.47;;;;;;;19.00;100.00;97527.44;4991397;28;20501;-76
2023/09/15 09:04:10;;;;;;;5.40;3.95;;;;;;;19.04;100.00;97521.16;4992774;28;20828;-76
2023/09/15 09:06:36;;;;;;;5.13;4.15;;;;;;;19.08;100.00;97524.06;4992242;28;20446;-77
2023/09/15 09:09:04;;;;;;;5.40;3.60;;;;;;;19.18;100.00;97523.81;4992356;28;20676;-77
2023/09/15 09:11:31;;;;;;;4.50;3.55;;;;;;;19.26;100.00;97518.50;4992458;28;20456;-77
2023/09/15 09:13:58;;;;;;;4.40;3.13;;;;;;;19.41;100.00;97525.41;4992054;28;20820;-77
2023/09/15 09:16:26;;;;;;;6.10;4.10;;;;;;;19.45;100.00;97514.88;4986159;28;20414;-76
2023/09/15 09:18:57;;;;;;;5.57;4.35;;;;;;;19.49;100.00;97519.34;4992196;28;20524;-76
2023/09/15 09:21:27;;;;;;;8.18;5.60;;;;;;;19.45;100.00;97513.00;4991562;28;20411;-76
2023/09/15 09:23:54;;;;;;;6.57;4.72;;;;;;;19.58;100.00;97514.84;4991006;28;20429;-77
2023/09/15 09:26:20;;;;;;;6.03;4.65;;;;;;;19.75;100.00;97516.06;4992167;28;20442;-76
2023/09/15 09:28:48;;;;;;;5.63;3.88;;;;;;;19.98;100.00;97506.88;4991787;28;20411;-77
2023/09/15 09:31:16;;;;;;;4.90;3.90;;;;;;;20.24;100.00;97504.28;4992254;28;20511;-76
2023/09/15 09:33:42;;;;;;;4.10;3.40;;;;;;;20.46;100.00;97502.34;4991759;28;20845;-77
2023/09/15 09:36:13;;;;;;;5.13;3.70;;;;;;;20.71;100.00;97498.16;4991890;28;20409;-77
2023/09/15 09:38:41;;;;;;;3.90;3.17;;;;;;;20.96;100.00;97503.88;4992018;28;20404;-76
2023/09/15 09:41:08;;;;;;;5.93;3.55;;;;;;;21.18;100.00;97501.88;4991836;28;20506;-77
2023/09/15 09:43:35;;;;;;;4.93;3.67;;;;;;;21.36;100.00;97499.97;4991230;28;20414;-76
2023/09/15 09:46:03;;;;;;;4.50;3.35;;;;;;;21.47;100.00;97503.13;4991322;28;20410;-77
2023/09/15 09:48:32;;;;;;;12.55;5.93;;;;;;;21.30;100.00;97493.16;4991280;28;20424;-77
2023/09/15 09:50:59;;;;;;;4.95;3.90;;;;;;;21.55;100.00;97491.56;4991699;28;20399;-77
2023/09/15 09:53:27;;;;;;;5.85;3.60;;;;;;;21.68;100.00;97490.56;4991643;28;20410;-77
2023/09/15 09:55:54;;;;;;;6.37;3.63;;;;;;;21.84;100.00;97497.03;4990715;28;20468;-77
2023/09/15 09:58:22;;;;;;;5.90;3.43;;;;;;;22.03;100.00;97498.63;4985320;28;20409;-77
2023/09/15 10:00:48;;;;;;;7.95;3.30;;;;;;;22.20;100.00;97488.53;4991451;28;20465;-76
2023/09/15 10:03:15;;;;;;;4.75;3.72;;;;;;;22.30;100.00;97490.09;4991622;28;20414;-76
2023/09/15 10:05:42;;;;;;;6.15;4.00;;;;;;;22.40;100.00;97471.63;4991096;28;20903;-77
2023/09/15 10:08:09;;;;;;;4.30;3.20;;;;;;;22.44;100.00;97477.19;4991246;28;20986;-77
2023/09/15 10:10:41;;;;;;;4.68;3.40;;;;;;;22.51;100.00;97469.34;4990745;28;20410;-77
2023/09/15 10:13:08;;;;;;;4.78;3.47;;;;;;;22.65;100.00;97469.13;4991436;28;20438;-77
2023/09/15 10:15:35;;;;;;;4.43;3.25;;;;;;;22.81;100.00;97472.06;4990658;28;20422;-77
2023/09/15 10:18:04;;;;;;;4.90;2.67;;;;;;;22.98;100.00;97471.94;4990613;28;20479;-77
2023/09/15 10:20:31;;;;;;;5.60;3.83;;;;;;;23.13;100.00;97474.84;4991447;28;20413;-76
2023/09/15 10:22:59;;;;;;;4.10;3.50;;;;;;;23.31;100.00;97467.38;4991513;28;20414;-77
2023/09/15 10:25:27;;;;;;;3.83;3.25;;;;;;;23.39;100.00;97460.31;4991049;28;21006;-77
2023/09/15 10:27:54;;;;;;;5.37;3.70;;;;;;;23.47;100.00;97454.03;4991636;28;20453;-77
2023/09/15 10:30:21;;;;;;;5.00;3.40;;;;;;;23.53;100.00;97452.75;4992616;28;20505;-77
2023/09/15 10:32:50;;;;;;;4.40;3.50;;;;;;;23.61;100.00;97459.19;4991180;28;20792;-77
2023/09/15 10:35:16;;;;;;;4.63;3.92;;;;;;;23.56;100.00;97454.78;4991344;28;20411;-77
2023/09/15 10:37:43;;;;;;;4.60;3.58;;;;;;;23.54;100.00;97448.91;4990811;28;20953;-77
2023/09/15 10:40:12;;;;;;;4.15;3.25;;;;;;;23.53;100.00;97455.47;4991619;28;20501;-77
2023/09/15 10:42:49;;;;;;;4.20;3.47;;;;;;;23.49;100.00;97444.53;4991491;28;20415;-76
2023/09/15 10:45:15;;;;;;;4.35;3.28;;;;;;;23.48;100.00;97444.84;4990736;28;20406;-77
2023/09/15 10:47:42;;;;;;;5.38;4.13;;;;;;;23.44;100.00;97435.81;4990510;28;20549;-77
2023/09/15 10:50:09;;;;;;;4.73;3.10;;;;;;;23.39;100.00;97446.81;4989857;28;20442;-77
2023/09/15 10:52:37;;;;;;;4.57;3.38;;;;;;;23.40;100.00;97446.47;4990157;28;20887;-77
2023/09/15 10:55:04;;;;;;;5.20;3.63;;;;;;;23.36;100.00;97436.69;4989984;28;20419;-77
2023/09/15 10:57:35;;;;;;;5.70;3.78;;;;;;;23.33;100.00;97431.94;4990723;28;20462;-77
2023/09/15 11:00:06;;;;;;;5.13;4.15;;;;;;;23.33;100.00;97434.63;4991282;28;20928;-77
2023/09/15 11:02:35;;;;;;;3.88;3.22;;;;;;;23.41;100.00;97434.56;4989685;28;20449;-77
2023/09/15 11:05:03;;;;;;;4.07;3.40;;;;;;;23.49;100.00;97433.72;4988794;28;20433;-77
2023/09/15 11:07:32;;;;;;;5.50;3.17;;;;;;;23.59;100.00;97429.00;4987625;28;20760;-77
2023/09/15 11:09:59;;;;;;;4.18;3.53;;;;;;;23.70;100.00;97417.44;4990017;28;20417;-77
2023/09/15 11:12:25;;;;;;;3.83;3.22;;;;;;;23.77;100.00;97425.78;4984925;28;20448;-77
2023/09/15 11:14:59;;;;;;;3.47;3.13;;;;;;;23.82;100.00;97414.75;4989946;28;20414;-76
2023/09/15 11:17:29;;;;;;;4.65;3.40;;;;;;;23.87;100.00;97413.75;4989868;28;20413;-76
2023/09/15 11:19:57;;;;;;;6.65;4.13;;;;;;;23.93;100.00;97415.88;4990804;28;20399;-77
2023/09/15 11:22:23;;;;;;;6.20;4.05;;;;;;;24.01;100.00;97408.00;4989325;28;20460;-77
2023/09/15 11:24:51;;;;;;;7.32;5.32;;;;;;;24.09;100.00;97404.41;4989204;28;20844;-77